createdAt,value
2023-03-31T00:01:34.475Z,98193.02
2023-03-31T00:04:05.958Z,98193.58
2023-03-31T00:06:38.307Z,98194.30
2023-03-31T00:09:10.923Z,98195.05
2023-03-31T00:11:40.537Z,98197.86
2023-03-31T00:14:08.733Z,98198.73
2023-03-31T00:16:38.075Z,98192.36
2023-03-31T00:19:09.938Z,98193.91
2023-03-31T00:21:42.890Z,98187.35
2023-03-31T00:24:12.013Z,98185.44
2023-03-31T00:26:40.523Z,98184.89
2023-03-31T00:29:10.425Z,98182.29
2023-03-31T00:31:39.183Z,98181.95
2023-03-31T00:34:07.485Z,98178.18
2023-03-31T00:36:36.953Z,98176.11
2023-03-31T00:39:10.308Z,98165.60
2023-03-31T00:41:39.551Z,98167.83
2023-03-31T00:44:23.045Z,98166.79
2023-03-31T00:47:13.118Z,98168.69
2023-03-31T00:49:48.382Z,98165.06
2023-03-31T00:52:21.991Z,98160.43
2023-03-31T00:54:53.798Z,98160.82
2023-03-31T00:57:21.990Z,98157.58
2023-03-31T00:59:52.127Z,98158.97
2023-03-31T01:02:20.763Z,98150.86
2023-03-31T01:04:54.995Z,98150.00
2023-03-31T01:07:27.430Z,98145.90
2023-03-31T01:09:59.172Z,98144.73
2023-03-31T01:12:27.980Z,98141.42
2023-03-31T01:14:56.485Z,98139.91
2023-03-31T01:17:25.261Z,98135.78
2023-03-31T01:20:12.661Z,98130.44
2023-03-31T01:23:12.487Z,98121.46
2023-03-31T01:26:05.045Z,98116.66
2023-03-31T01:28:52.435Z,98114.76
2023-03-31T01:31:29.789Z,98110.78
2023-03-31T01:34:23.093Z,98105.09
2023-03-31T01:44:41.188Z,98078.73
2023-03-31T01:47:14.480Z,98074.77
2023-03-31T01:49:56.336Z,98078.39
2023-03-31T01:52:46.206Z,98077.35
2023-03-31T01:55:33.871Z,98073.39
2023-03-31T01:58:21.717Z,98075.34
2023-03-31T02:01:03.785Z,98068.48
2023-03-31T02:03:35.603Z,98072.86
2023-03-31T02:08:10.911Z,98069.08
2023-03-31T02:10:40.169Z,98065.14
2023-03-31T02:13:13.166Z,98064.61
2023-03-31T02:15:46.700Z,98056.33
2023-03-31T02:18:17.319Z,98057.23
2023-03-31T02:20:47.966Z,98062.93
2023-03-31T02:23:17.585Z,98063.61
2023-03-31T02:25:49.447Z,98064.97
2023-03-31T02:28:21.658Z,98065.65
2023-03-31T02:31:04.014Z,98064.48
2023-03-31T02:33:33.206Z,98063.14
2023-03-31T02:36:01.420Z,98059.20
2023-03-31T02:38:32.524Z,98054.55
2023-03-31T02:41:00.739Z,98054.39
2023-03-31T02:43:29.550Z,98052.70
2023-03-31T02:45:57.534Z,98055.46
2023-03-31T02:48:33.441Z,98048.92
2023-03-31T02:51:10.924Z,98049.10
2023-03-31T02:54:10.338Z,98045.79
2023-03-31T02:57:19.334Z,98045.43
2023-03-31T03:00:02.611Z,98043.39
2023-03-31T03:02:55.658Z,98040.33
2023-03-31T03:05:45.985Z,98037.96
2023-03-31T03:08:55.817Z,98036.88
2023-03-31T03:11:47.784Z,98034.76
2023-03-31T03:14:23.252Z,98028.83
2023-03-31T03:16:56.737Z,98024.08
2023-03-31T03:19:25.212Z,98024.80
2023-03-31T03:21:53.227Z,98022.79
2023-03-31T03:24:22.912Z,98019.91
2023-03-31T03:26:52.220Z,98014.95
2023-03-31T03:29:20.195Z,98011.36
2023-03-31T03:31:48.180Z,98014.31
2023-03-31T03:34:18.714Z,98010.88
2023-03-31T03:36:47.007Z,98013.98
2023-03-31T03:39:20.248Z,98016.36
2023-03-31T03:41:48.749Z,98011.51
2023-03-31T03:44:16.925Z,98004.90
2023-03-31T03:46:44.936Z,98005.02
2023-03-31T03:49:23.150Z,97998.45
2023-03-31T03:51:51.742Z,98004.13
2023-03-31T03:54:19.730Z,98008.78
2023-03-31T03:56:48.135Z,98006.52
2023-03-31T03:59:16.367Z,98010.99
2023-03-31T04:01:47.413Z,98010.44
2023-03-31T04:04:16.331Z,98011.27
2023-03-31T04:06:44.406Z,98001.45
2023-03-31T04:09:12.262Z,98009.04
2023-03-31T04:11:40.554Z,98000.13
2023-03-31T04:14:08.863Z,97996.01
2023-03-31T04:16:38.545Z,97992.05
2023-03-31T04:19:07.058Z,97994.40
2023-03-31T04:21:35.243Z,97993.14
2023-03-31T04:24:07.389Z,97988.80
2023-03-31T04:26:44.755Z,97993.92
2023-03-31T04:29:14.154Z,97996.13
2023-03-31T04:31:43.181Z,97992.82
2023-03-31T04:34:15.217Z,97990.92
2023-03-31T04:36:48.678Z,97987.45
2023-03-31T04:39:17.660Z,97981.23
2023-03-31T04:41:49.042Z,97985.53
2023-03-31T04:44:17.621Z,97987.58
2023-03-31T04:46:45.725Z,97989.48
2023-03-31T04:49:16.968Z,97996.55
2023-03-31T04:51:45.369Z,97996.78
2023-03-31T04:54:16.669Z,97997.84
2023-03-31T04:56:46.665Z,97998.21
2023-03-31T04:59:14.892Z,98001.84
2023-03-31T05:01:45.880Z,97997.71
2023-03-31T05:04:14.313Z,97996.66
2023-03-31T05:06:43.699Z,97994.73
2023-03-31T05:09:12.097Z,97995.73
2023-03-31T05:11:41.945Z,97995.00
2023-03-31T05:14:10.311Z,97993.74
2023-03-31T05:16:38.504Z,97993.71
2023-03-31T05:19:06.860Z,97994.20
2023-03-31T05:21:35.155Z,97993.30
2023-03-31T05:24:05.095Z,97992.90
2023-03-31T05:26:33.684Z,97990.10
2023-03-31T05:29:02.111Z,97988.20
2023-03-31T05:31:30.780Z,97989.85
2023-03-31T05:33:58.969Z,97986.69
2023-03-31T05:36:27.627Z,97986.12
2023-03-31T05:38:55.966Z,97983.34
2023-03-31T05:41:24.099Z,97977.98
2023-03-31T05:43:52.603Z,97981.02
2023-03-31T05:46:20.999Z,97979.41
2023-03-31T05:48:50.298Z,97975.91
2023-03-31T05:51:19.102Z,97972.40
2023-03-31T05:53:47.598Z,97975.48
2023-03-31T05:56:15.933Z,97976.79
2023-03-31T05:58:45.968Z,97976.58
2023-03-31T06:01:19.985Z,97974.45
2023-03-31T06:03:49.168Z,97978.52
2023-03-31T06:06:17.555Z,97979.34
2023-03-31T06:08:48.091Z,97977.18
2023-03-31T06:11:20.779Z,97977.10
2023-03-31T06:13:49.388Z,97977.02
2023-03-31T06:16:21.587Z,97975.19
2023-03-31T06:18:51.440Z,97974.41
2023-03-31T06:21:20.816Z,97975.88
2023-03-31T06:23:49.638Z,97973.04
2023-03-31T06:26:18.439Z,97975.52
2023-03-31T06:28:46.834Z,97973.55
2023-03-31T06:31:17.428Z,97976.40
2023-03-31T06:33:45.848Z,97978.92
2023-03-31T06:36:15.976Z,97977.98
2023-03-31T06:38:44.141Z,97977.55
2023-03-31T06:41:15.396Z,97976.11
2023-03-31T06:43:43.496Z,97977.61
2023-03-31T06:46:13.700Z,97980.64
2023-03-31T06:48:41.987Z,97979.52
2023-03-31T06:51:11.203Z,97980.81
2023-03-31T06:53:39.833Z,97980.88
2023-03-31T06:56:09.369Z,97980.61
2023-03-31T06:58:37.870Z,97976.59
2023-03-31T07:01:07.405Z,97977.20
2023-03-31T07:03:44.893Z,97979.70
2023-03-31T07:06:13.485Z,97977.73
2023-03-31T07:08:41.513Z,97977.79
2023-03-31T07:11:10.764Z,97979.25
2023-03-31T07:13:42.019Z,97977.05
2023-03-31T07:16:13.688Z,97977.85
2023-03-31T07:18:42.264Z,97973.12
2023-03-31T07:21:11.079Z,97971.98
2023-03-31T07:23:40.054Z,97966.02
2023-03-31T07:26:08.766Z,97963.13
2023-03-31T07:28:36.980Z,97962.11
2023-03-31T07:31:11.342Z,97962.64
2023-03-31T07:33:41.272Z,97961.23
2023-03-31T07:36:13.448Z,97963.78
2023-03-31T07:38:46.832Z,97964.75
2023-03-31T07:41:19.973Z,97963.25
2023-03-31T07:43:48.702Z,97966.27
2023-03-31T07:46:22.396Z,97961.33
2023-03-31T07:48:51.666Z,97961.94
2023-03-31T07:51:21.599Z,97959.11
2023-03-31T07:53:49.728Z,97960.17
2023-03-31T07:56:22.456Z,97957.95
2023-03-31T07:58:54.455Z,97955.04
2023-03-31T08:01:26.313Z,97956.63
2023-03-31T08:03:55.857Z,97957.58
2023-03-31T08:06:25.560Z,97955.81
2023-03-31T08:08:53.567Z,97954.77
2023-03-31T08:18:59.590Z,97954.77
2023-03-31T08:21:29.903Z,97954.33
2023-03-31T08:24:01.560Z,97950.19
2023-03-31T08:26:32.101Z,97950.61
2023-03-31T08:29:00.413Z,97950.92
2023-03-31T08:31:29.262Z,97946.21
2023-03-31T08:33:57.500Z,97950.02
2023-03-31T08:36:27.279Z,97946.90
2023-03-31T08:38:56.120Z,97946.15
2023-03-31T08:41:33.846Z,97947.73
2023-03-31T08:44:16.391Z,97943.35
2023-03-31T08:46:45.381Z,97945.04
2023-03-31T08:49:17.870Z,97945.34
2023-03-31T08:51:52.296Z,97941.34
2023-03-31T08:54:29.377Z,97937.25
2023-03-31T08:57:06.355Z,97933.16
2023-03-31T08:59:41.177Z,97931.64
2023-03-31T09:02:21.759Z,97934.98
2023-03-31T09:05:17.575Z,97930.83
2023-03-31T09:07:55.726Z,97931.61
2023-03-31T09:10:35.606Z,97931.41
2023-03-31T09:13:09.817Z,97931.20
2023-03-31T09:15:46.517Z,97924.55
2023-03-31T09:18:19.774Z,97912.92
2023-03-31T09:21:33.284Z,97910.52
2023-03-31T09:24:20.957Z,97913.89
2023-03-31T09:26:57.322Z,97913.95
2023-03-31T09:29:31.503Z,97908.47
2023-03-31T09:32:09.385Z,97914.14
2023-03-31T09:34:38.047Z,97909.37
2023-03-31T09:37:06.084Z,97904.73
2023-03-31T09:39:36.391Z,97900.98
2023-03-31T09:42:04.737Z,97893.16
2023-03-31T09:44:44.432Z,97888.64
2023-03-31T09:47:24.748Z,97888.15
2023-03-31T09:49:53.792Z,97873.32
2023-03-31T09:52:27.301Z,97877.23
2023-03-31T09:54:57.072Z,97875.82
2023-03-31T09:57:33.774Z,97874.31
2023-03-31T10:00:14.368Z,97876.21
2023-03-31T10:02:53.588Z,97878.08
2023-03-31T10:05:21.569Z,97874.14
2023-03-31T10:07:50.058Z,97879.13
2023-03-31T10:10:36.191Z,97878.59
2023-03-31T10:13:09.087Z,97870.81
2023-03-31T10:15:39.691Z,97867.86
2023-03-31T10:18:14.674Z,97863.27
2023-03-31T10:20:52.156Z,97857.75
2023-03-31T10:23:20.986Z,97852.66
2023-03-31T10:25:49.844Z,97849.11
2023-03-31T10:28:20.397Z,97846.71
2023-03-31T10:30:56.538Z,97841.04
2023-03-31T10:33:26.157Z,97843.84
2023-03-31T10:35:59.600Z,97833.39
2023-03-31T10:38:30.945Z,97835.01
2023-03-31T10:40:59.667Z,97829.09
2023-03-31T10:43:41.790Z,97829.98
2023-03-31T10:46:14.082Z,97820.41
2023-03-31T10:48:44.370Z,97819.30
2023-03-31T10:51:17.499Z,97815.05
2023-03-31T10:53:48.401Z,97812.07
2023-03-31T10:56:42.454Z,97807.67
2023-03-31T10:59:41.799Z,97803.55
2023-03-31T11:02:33.488Z,97795.19
2023-03-31T11:05:36.870Z,97791.55
2023-03-31T11:08:29.664Z,97792.17
2023-03-31T11:11:26.185Z,97800.86
2023-03-31T11:14:01.790Z,97796.79
2023-03-31T11:17:04.239Z,97795.17
2023-03-31T11:19:41.744Z,97798.59
2023-03-31T11:22:18.688Z,97791.13
2023-03-31T11:24:53.984Z,97788.73
2023-03-31T11:27:36.003Z,97786.36
2023-03-31T11:30:07.521Z,97775.08
2023-03-31T11:33:13.996Z,97776.07
2023-03-31T11:35:50.933Z,97771.58
2023-03-31T11:38:24.147Z,97770.03
2023-03-31T11:41:03.997Z,97765.97
2023-03-31T11:43:36.470Z,97762.76
2023-03-31T11:46:06.611Z,97758.78
2023-03-31T11:48:43.935Z,97757.92
2023-03-31T11:51:19.881Z,97750.33
2023-03-31T11:53:48.110Z,97749.09
2023-03-31T11:56:16.625Z,97743.45
2023-03-31T11:58:57.977Z,97745.42
2023-03-31T12:02:11.572Z,97741.27
2023-03-31T12:04:41.953Z,97741.42
2023-03-31T12:07:32.628Z,97727.77
2023-03-31T12:10:21.256Z,97724.98
2023-03-31T12:13:07.470Z,97719.95
2023-03-31T12:15:42.126Z,97713.25
2023-03-31T12:18:14.414Z,97710.04
2023-03-31T12:20:47.835Z,97703.14
2023-03-31T12:23:18.627Z,97704.84
2023-03-31T12:25:56.399Z,97694.92
2023-03-31T12:28:24.879Z,97693.51
2023-03-31T12:30:54.945Z,97695.45
2023-03-31T12:33:34.154Z,97697.98
2023-03-31T12:36:18.277Z,97693.80
2023-03-31T12:39:12.607Z,97698.61
2023-03-31T12:41:59.671Z,97694.20
2023-03-31T12:44:34.521Z,97690.95
2023-03-31T12:47:21.475Z,97689.35
2023-03-31T12:50:04.729Z,97683.48
2023-03-31T12:53:05.795Z,97681.82
2023-03-31T12:55:41.431Z,97681.27
2023-03-31T12:58:26.824Z,97671.11
2023-03-31T13:01:10.448Z,97673.25
2023-03-31T13:03:45.548Z,97670.88
2023-03-31T13:06:26.131Z,97665.50
2023-03-31T13:08:56.121Z,97664.83
2023-03-31T13:11:33.332Z,97658.87
2023-03-31T13:14:11.028Z,97659.33
2023-03-31T13:16:46.679Z,97658.18
2023-03-31T13:19:35.118Z,97653.66
2023-03-31T13:22:04.565Z,97651.04
2023-03-31T13:24:33.814Z,97653.98
2023-03-31T13:27:29.218Z,97645.34
2023-03-31T13:29:57.248Z,97646.38
2023-03-31T13:32:26.493Z,97639.29
2023-03-31T13:34:58.887Z,97645.91
2023-03-31T13:37:45.837Z,97641.28
2023-03-31T13:40:26.424Z,97637.85
2023-03-31T13:43:06.469Z,97642.12
2023-03-31T13:46:06.362Z,97639.17
2023-03-31T13:49:06.659Z,97636.39
2023-03-31T13:51:44.149Z,97630.69
2023-03-31T13:54:12.307Z,97624.87
2023-03-31T13:56:49.450Z,97626.86
2023-03-31T13:59:29.891Z,97624.39
2023-03-31T14:02:32.831Z,97620.59
2023-03-31T14:05:04.410Z,97620.38
2023-03-31T14:07:34.854Z,97619.14
2023-03-31T14:10:07.350Z,97623.48
2023-03-31T14:12:37.693Z,97626.40
2023-03-31T14:15:18.477Z,97622.89
2023-03-31T14:17:46.705Z,97623.26
2023-03-31T14:20:30.884Z,97627.17
2023-03-31T14:26:42.581Z,97625.34
2023-03-31T14:29:23.376Z,97620.87
2023-03-31T14:32:46.092Z,97617.89
2023-03-31T14:35:43.393Z,97621.05
2023-03-31T14:38:17.444Z,97621.95
2023-03-31T14:40:48.503Z,97620.02
2023-03-31T14:43:24.335Z,97616.58
2023-03-31T14:46:01.792Z,97615.52
2023-03-31T14:48:30.640Z,97610.63
2023-03-31T14:51:01.364Z,97609.50
2023-03-31T14:53:29.513Z,97609.05
2023-03-31T14:56:02.555Z,97610.20
2023-03-31T14:58:34.929Z,97613.61
2023-03-31T15:01:04.254Z,97615.34
2023-03-31T15:03:34.774Z,97614.38
2023-03-31T15:06:03.922Z,97609.80
2023-03-31T15:08:32.160Z,97611.20
2023-03-31T15:11:12.606Z,97613.06
2023-03-31T15:14:03.703Z,97615.23
2023-03-31T15:16:44.510Z,97613.05
2023-03-31T15:19:21.826Z,97617.41
2023-03-31T15:22:08.930Z,97624.36
2023-03-31T15:24:37.162Z,97628.84
2023-03-31T15:27:36.631Z,97622.83
2023-03-31T15:30:07.286Z,97622.78
2023-03-31T15:32:36.598Z,97629.38
2023-03-31T15:37:40.485Z,97629.20
2023-03-31T15:40:23.271Z,97634.77
2023-03-31T15:45:57.215Z,97634.92
2023-03-31T15:48:35.820Z,97634.38
2023-03-31T15:51:18.622Z,97628.27
2023-03-31T15:53:50.897Z,97627.86
2023-03-31T15:56:28.436Z,97625.39
2023-03-31T15:59:00.028Z,97621.08
2023-03-31T16:01:32.851Z,97618.11
2023-03-31T16:04:02.705Z,97618.19
2023-03-31T16:06:33.359Z,97619.30
2023-03-31T16:09:09.162Z,97614.93
2023-03-31T16:11:43.723Z,97605.58
2023-03-31T16:14:33.156Z,97601.56
2023-03-31T16:17:07.393Z,97596.02
2023-03-31T16:19:47.126Z,97596.99
2023-03-31T16:22:19.501Z,97600.96
2023-03-31T16:24:47.657Z,97601.99
2023-03-31T16:27:15.911Z,97591.02
2023-03-31T16:29:45.738Z,97589.98
2023-03-31T16:32:15.663Z,97586.52
2023-03-31T16:35:02.007Z,97587.95
2023-03-31T16:37:30.783Z,97586.52
2023-03-31T16:39:58.947Z,97584.55
2023-03-31T16:42:27.330Z,97590.89
2023-03-31T16:45:12.632Z,97588.44
2023-03-31T16:47:45.315Z,97590.22
2023-03-31T16:50:15.352Z,97591.52
2023-03-31T16:52:44.195Z,97591.06
2023-03-31T16:55:12.603Z,97593.09
2023-03-31T16:57:42.106Z,97592.92
2023-03-31T17:00:11.793Z,97590.48
2023-03-31T17:02:40.538Z,97592.77
2023-03-31T17:05:13.159Z,97597.67
2023-03-31T17:07:42.028Z,97604.81
2023-03-31T17:10:14.749Z,97604.34
2023-03-31T17:12:45.864Z,97600.23
2023-03-31T17:15:14.071Z,97600.92
2023-03-31T17:17:46.544Z,97601.46
2023-03-31T17:20:15.976Z,97600.58
2023-03-31T17:22:44.319Z,97602.35
2023-03-31T17:25:12.944Z,97610.00
2023-03-31T17:35:20.816Z,97598.70
2023-03-31T17:37:53.956Z,97599.01
2023-03-31T17:40:26.822Z,97604.95
2023-03-31T17:43:05.387Z,97603.84
2023-03-31T17:45:35.622Z,97607.73
2023-03-31T17:48:06.726Z,97608.54
2023-03-31T17:50:36.616Z,97609.14
2023-03-31T17:53:09.074Z,97612.71
2023-03-31T17:55:39.190Z,97609.89
2023-03-31T17:58:08.700Z,97608.76
2023-03-31T18:00:40.554Z,97613.16
2023-03-31T18:03:09.298Z,97612.34
2023-03-31T18:05:41.908Z,97617.23
2023-03-31T18:08:12.183Z,97613.95
2023-03-31T18:10:41.236Z,97615.52
2023-03-31T18:13:10.096Z,97616.59
2023-03-31T18:15:46.759Z,97619.37
2023-03-31T18:18:15.745Z,97623.33
2023-03-31T18:20:50.594Z,97623.91
2023-03-31T18:23:19.018Z,97622.91
2023-03-31T18:25:47.336Z,97623.13
2023-03-31T18:28:16.145Z,97619.23
2023-03-31T18:30:44.852Z,97615.18
2023-03-31T18:33:13.484Z,97617.88
2023-03-31T18:35:42.893Z,97615.24
2023-03-31T18:38:12.285Z,97614.64
2023-03-31T18:40:40.560Z,97611.65
2023-03-31T18:43:08.950Z,97609.86
2023-03-31T18:45:38.611Z,97597.67
2023-03-31T18:48:06.912Z,97597.46
2023-03-31T18:50:36.018Z,97599.30
2023-03-31T18:53:05.112Z,97602.37
2023-03-31T18:55:33.530Z,97597.60
2023-03-31T18:58:01.684Z,97597.17
2023-03-31T19:00:29.790Z,97597.77
2023-03-31T19:02:59.434Z,97596.14
2023-03-31T19:05:28.759Z,97592.86
2023-03-31T19:07:57.628Z,97586.21
2023-03-31T19:10:26.098Z,97579.92
2023-03-31T19:12:57.244Z,97577.60
2023-03-31T19:15:26.750Z,97578.39
2023-03-31T19:17:56.581Z,97576.08
2023-03-31T19:20:26.899Z,97570.50
2023-03-31T19:22:56.140Z,97571.15
2023-03-31T19:25:27.253Z,97569.02
2023-03-31T19:27:56.300Z,97569.13
2023-03-31T19:30:25.106Z,97564.52
2023-03-31T19:32:56.574Z,97565.61
2023-03-31T19:35:27.407Z,97562.86
2023-03-31T19:37:57.618Z,97558.20
2023-03-31T19:40:26.321Z,97559.09
2023-03-31T19:42:54.461Z,97556.66
2023-03-31T19:45:24.550Z,97556.45
2023-03-31T19:47:53.252Z,97545.85
2023-03-31T19:50:21.691Z,97543.56
2023-03-31T19:52:50.874Z,97538.36
2023-03-31T19:55:19.492Z,97538.52
2023-03-31T19:57:47.867Z,97532.10
2023-03-31T20:00:19.673Z,97531.92
2023-03-31T20:03:04.623Z,97527.89
2023-03-31T20:05:33.830Z,97529.22
2023-03-31T20:08:01.963Z,97526.28
2023-03-31T20:10:36.485Z,97527.27
2023-03-31T20:13:04.896Z,97527.77
2023-03-31T20:15:34.086Z,97523.86
2023-03-31T20:18:03.225Z,97525.13
2023-03-31T20:20:32.000Z,97522.61
2023-03-31T20:23:00.248Z,97521.70
2023-03-31T20:25:29.833Z,97520.25
2023-03-31T20:27:58.524Z,97517.10
2023-03-31T20:30:28.356Z,97516.87
2023-03-31T20:32:57.188Z,97519.64
2023-03-31T20:43:00.132Z,97520.84
2023-03-31T20:45:28.630Z,97519.73
2023-03-31T20:47:57.253Z,97518.89
2023-03-31T20:50:25.520Z,97518.33
2023-03-31T20:52:54.022Z,97515.67
2023-03-31T20:55:22.315Z,97507.83
2023-03-31T20:57:53.004Z,97504.35
2023-03-31T21:00:22.109Z,97501.41
2023-03-31T21:02:53.583Z,97502.83
2023-03-31T21:05:22.170Z,97500.58
2023-03-31T21:07:50.456Z,97494.71
2023-03-31T21:10:24.513Z,97487.96
2023-03-31T21:12:54.532Z,97488.39
2023-03-31T21:15:22.837Z,97484.34
2023-03-31T21:17:51.207Z,97484.59
2023-03-31T21:20:19.420Z,97482.34
2023-03-31T21:22:48.545Z,97480.23
2023-03-31T21:25:17.141Z,97478.92
2023-03-31T21:27:45.531Z,97477.98
2023-03-31T21:30:14.766Z,97468.71
2023-03-31T21:32:43.278Z,97467.42
2023-03-31T21:35:11.855Z,97469.05
2023-03-31T21:37:40.115Z,97466.69
2023-03-31T21:40:09.736Z,97459.65
2023-03-31T21:42:38.511Z,97458.52
2023-03-31T21:45:07.605Z,97451.67
2023-03-31T21:47:36.238Z,97443.27
2023-03-31T21:50:05.127Z,97443.33
2023-03-31T21:52:34.032Z,97443.39
2023-03-31T21:55:02.393Z,97438.13
2023-03-31T21:57:31.167Z,97441.13
2023-03-31T21:59:59.590Z,97440.26
2023-03-31T22:02:27.644Z,97439.81
2023-03-31T22:04:56.302Z,97437.35
2023-03-31T22:07:24.411Z,97430.61
2023-03-31T22:09:52.582Z,97425.75
2023-03-31T22:12:21.201Z,97419.71
2023-03-31T22:14:49.570Z,97409.18
2023-03-31T22:17:18.163Z,97409.44
2023-03-31T22:19:46.422Z,97412.91
2023-03-31T22:22:14.625Z,97419.94
2023-03-31T22:24:44.231Z,97420.61
2023-03-31T22:27:12.854Z,97418.15
2023-03-31T22:29:43.758Z,97420.21
2023-03-31T22:32:11.831Z,97420.73
2023-03-31T22:34:40.960Z,97416.21
2023-03-31T22:37:09.254Z,97410.79
2023-03-31T22:39:38.019Z,97410.77
2023-03-31T22:42:06.506Z,97416.62
2023-03-31T22:44:38.106Z,97418.52
2023-03-31T22:47:09.276Z,97414.88
2023-03-31T22:49:37.534Z,97405.85
2023-03-31T22:52:05.898Z,97402.90
2023-03-31T22:54:34.058Z,97407.54
2023-03-31T22:57:02.520Z,97406.55
2023-03-31T22:59:31.248Z,97406.55
2023-03-31T23:01:59.935Z,97401.48
2023-03-31T23:04:28.136Z,97390.70
2023-03-31T23:06:56.303Z,97390.30
2023-03-31T23:09:24.902Z,97396.32
2023-03-31T23:11:53.379Z,97398.73
2023-03-31T23:14:21.766Z,97395.06
2023-03-31T23:16:51.842Z,97392.75
2023-03-31T23:19:20.069Z,97390.97
2023-03-31T23:21:48.567Z,97391.17
2023-03-31T23:24:20.047Z,97390.33
2023-03-31T23:26:51.910Z,97382.81
2023-03-31T23:29:20.278Z,97381.27
2023-03-31T23:31:48.373Z,97378.69
2023-03-31T23:34:17.151Z,97377.20
2023-03-31T23:36:45.453Z,97374.68
2023-03-31T23:39:14.946Z,97371.61
2023-03-31T23:41:43.839Z,97370.84
2023-03-31T23:44:12.961Z,97367.31
2023-03-31T23:46:44.358Z,97367.80
2023-03-31T23:49:12.690Z,97352.86
2023-03-31T23:51:42.535Z,97344.85
2023-03-31T23:54:10.900Z,97340.92
2023-03-31T23:56:40.644Z,97340.74
2023-03-31T23:59:09.108Z,97337.96
